createdAt,value
2019-03-27T21:38:33.318Z,95860.44
2019-03-27T21:41:01.124Z,95857.11
2019-03-27T21:43:28.973Z,95877.45
2019-03-27T21:46:54.910Z,95873.30
2019-03-27T21:49:22.698Z,95874.02
2019-03-27T21:51:48.953Z,95874.07
2019-03-27T21:54:14.975Z,95873.59
2019-03-27T21:56:41.010Z,95882.02
2019-03-27T21:59:07.010Z,95880.96
2019-03-27T22:01:33.155Z,95887.23
2019-03-27T22:03:59.513Z,95887.36
2019-03-27T22:06:25.645Z,95877.34
2019-03-27T22:08:51.781Z,95880.83
2019-03-27T22:11:17.839Z,95880.12
2019-03-27T22:13:43.948Z,95881.98
2019-03-27T22:16:10.027Z,95892.63
2019-03-27T22:18:36.115Z,95887.16
2019-03-27T22:21:02.204Z,95886.84
2019-03-27T22:23:28.206Z,95891.13
2019-03-27T22:25:54.235Z,95893.13
2019-03-27T22:28:20.233Z,95890.63
2019-03-27T22:30:46.288Z,95889.12
2019-03-27T22:33:12.347Z,95891.84
2019-03-27T22:35:38.462Z,95894.59
2019-03-27T22:38:04.449Z,95899.43
2019-03-27T22:40:30.471Z,95907.91
2019-03-27T22:42:57.012Z,95912.12
2019-03-27T22:45:23.202Z,95905.08
2019-03-27T22:47:49.295Z,95911.12
2019-03-27T22:50:15.372Z,95912.70
2019-03-27T22:52:41.440Z,95919.30
2019-03-27T22:55:07.507Z,95915.17
2019-03-27T22:57:33.623Z,95913.48
2019-03-27T22:59:59.605Z,95913.81
2019-03-27T23:02:25.739Z,95907.33
2019-03-27T23:04:51.826Z,95911.78
2019-03-27T23:07:17.813Z,95909.88
2019-03-27T23:09:43.830Z,95912.41
2019-03-27T23:12:09.769Z,95918.57
2019-03-27T23:14:35.732Z,95917.42
2019-03-27T23:17:01.795Z,95916.09
2019-03-27T23:19:27.754Z,95923.48
2019-03-27T23:21:53.699Z,95924.31
2019-03-27T23:24:19.648Z,95928.69
2019-03-27T23:26:45.704Z,95929.95
2019-03-27T23:29:11.672Z,95927.47
2019-03-27T23:31:37.602Z,95932.23
2019-03-27T23:34:03.644Z,95933.40
2019-03-27T23:36:29.624Z,95927.62
2019-03-27T23:38:55.756Z,95928.87
2019-03-27T23:41:21.833Z,95929.22
2019-03-27T23:43:47.892Z,95929.22
2019-03-27T23:46:14.000Z,95931.76
2019-03-27T23:48:40.119Z,95936.16
2019-03-27T23:51:06.080Z,95935.70
2019-03-27T23:53:32.047Z,95927.02
2019-03-27T23:55:58.138Z,95920.12
2019-03-27T23:58:24.203Z,95930.69
